sensor_id;sensor_type;location;lat;lon;timestamp;temperature;humidity
68251;DHT22;55066;51.560;4.642;2023-09-07T00:02:22;19.04;94.40
68251;DHT22;55066;51.560;4.642;2023-09-07T00:04:48;19.03;94.89
68251;DHT22;55066;51.560;4.642;2023-09-07T00:07:15;18.93;94.40
68251;DHT22;55066;51.560;4.642;2023-09-07T00:09:40;18.86;95.17
68251;DHT22;55066;51.560;4.642;2023-09-07T00:12:06;18.87;94.97
68251;DHT22;55066;51.560;4.642;2023-09-07T00:14:32;18.89;94.86
68251;DHT22;55066;51.560;4.642;2023-09-07T00:16:58;18.85;95.01
68251;DHT22;55066;51.560;4.642;2023-09-07T00:19:23;18.79;95.24
68251;DHT22;55066;51.560;4.642;2023-09-07T00:21:49;18.73;95.90
68251;DHT22;55066;51.560;4.642;2023-09-07T00:24:17;18.65;98.63
68251;DHT22;55066;51.560;4.642;2023-09-07T00:26:44;18.60;95.14
68251;DHT22;55066;51.560;4.642;2023-09-07T00:29:10;18.66;96.58
68251;DHT22;55066;51.560;4.642;2023-09-07T00:31:36;18.66;95.25
68251;DHT22;55066;51.560;4.642;2023-09-07T00:34:02;18.62;98.28
68251;DHT22;55066;51.560;4.642;2023-09-07T00:36:28;18.53;96.70
68251;DHT22;55066;51.560;4.642;2023-09-07T00:38:53;18.60;96.29
68251;DHT22;55066;51.560;4.642;2023-09-07T00:41:19;18.60;96.06
68251;DHT22;55066;51.560;4.642;2023-09-07T00:43:45;18.58;98.33
68251;DHT22;55066;51.560;4.642;2023-09-07T00:46:11;18.53;94.91
68251;DHT22;55066;51.560;4.642;2023-09-07T00:48:37;18.56;95.85
68251;DHT22;55066;51.560;4.642;2023-09-07T00:51:04;18.55;97.95
68251;DHT22;55066;51.560;4.642;2023-09-07T00:53:29;18.49;96.20
68251;DHT22;55066;51.560;4.642;2023-09-07T00:55:56;18.45;94.91
68251;DHT22;55066;51.560;4.642;2023-09-07T00:58:23;18.41;95.94
68251;DHT22;55066;51.560;4.642;2023-09-07T01:00:48;18.39;96.52
68251;DHT22;55066;51.560;4.642;2023-09-07T01:03:14;18.41;97.88
68251;DHT22;55066;51.560;4.642;2023-09-07T01:06:00;18.39;95.66
68251;DHT22;55066;51.560;4.642;2023-09-07T01:08:32;18.34;97.38
68251;DHT22;55066;51.560;4.642;2023-09-07T01:11:00;18.30;96.35
68251;DHT22;55066;51.560;4.642;2023-09-07T01:13:26;18.22;96.22
68251;DHT22;55066;51.560;4.642;2023-09-07T01:15:52;18.15;95.89
68251;DHT22;55066;51.560;4.642;2023-09-07T01:18:19;18.18;96.29
68251;DHT22;55066;51.560;4.642;2023-09-07T01:20:45;18.22;95.79
68251;DHT22;55066;51.560;4.642;2023-09-07T01:23:12;18.15;98.68
68251;DHT22;55066;51.560;4.642;2023-09-07T01:25:40;18.08;97.57
68251;DHT22;55066;51.560;4.642;2023-09-07T01:28:06;18.11;97.88
68251;DHT22;55066;51.560;4.642;2023-09-07T01:30:35;18.17;95.68
68251;DHT22;55066;51.560;4.642;2023-09-07T01:33:02;18.18;99.34
68251;DHT22;55066;51.560;4.642;2023-09-07T01:35:29;18.04;96.05
68251;DHT22;55066;51.560;4.642;2023-09-07T01:37:56;18.04;98.82
68251;DHT22;55066;51.560;4.642;2023-09-07T01:40:22;17.93;98.51
68251;DHT22;55066;51.560;4.642;2023-09-07T01:42:47;17.97;97.47
68251;DHT22;55066;51.560;4.642;2023-09-07T01:45:13;18.00;96.89
68251;DHT22;55066;51.560;4.642;2023-09-07T01:47:39;17.91;96.43
68251;DHT22;55066;51.560;4.642;2023-09-07T01:50:05;17.91;96.95
68251;DHT22;55066;51.560;4.642;2023-09-07T01:52:31;17.93;97.30
68251;DHT22;55066;51.560;4.642;2023-09-07T01:54:57;17.87;95.81
68251;DHT22;55066;51.560;4.642;2023-09-07T01:57:23;17.87;99.07
68251;DHT22;55066;51.560;4.642;2023-09-07T01:59:49;17.80;99.16
68251;DHT22;55066;51.560;4.642;2023-09-07T02:02:14;17.77;98.48
68251;DHT22;55066;51.560;4.642;2023-09-07T02:04:40;17.73;95.79
68251;DHT22;55066;51.560;4.642;2023-09-07T02:07:09;17.72;95.33
68251;DHT22;55066;51.560;4.642;2023-09-07T02:09:34;17.77;97.37
68251;DHT22;55066;51.560;4.642;2023-09-07T02:12:00;17.75;97.10
68251;DHT22;55066;51.560;4.642;2023-09-07T02:14:26;17.72;95.72
68251;DHT22;55066;51.560;4.642;2023-09-07T02:16:52;17.72;96.42
68251;DHT22;55066;51.560;4.642;2023-09-07T02:19:18;17.75;95.70
68251;DHT22;55066;51.560;4.642;2023-09-07T02:21:43;17.69;95.80
68251;DHT22;55066;51.560;4.642;2023-09-07T02:24:09;17.69;95.05
68251;DHT22;55066;51.560;4.642;2023-09-07T02:26:35;17.66;95.51
68251;DHT22;55066;51.560;4.642;2023-09-07T02:29:01;17.66;95.02
68251;DHT22;55066;51.560;4.642;2023-09-07T02:31:30;17.62;97.24
68251;DHT22;55066;51.560;4.642;2023-09-07T02:33:56;17.62;95.88
68251;DHT22;55066;51.560;4.642;2023-09-07T02:36:22;17.53;97.21
68251;DHT22;55066;51.560;4.642;2023-09-07T02:38:48;17.45;95.85
68251;DHT22;55066;51.560;4.642;2023-09-07T02:41:14;17.52;95.48
68251;DHT22;55066;51.560;4.642;2023-09-07T02:43:39;17.52;95.31
68251;DHT22;55066;51.560;4.642;2023-09-07T02:46:05;17.53;95.46
68251;DHT22;55066;51.560;4.642;2023-09-07T02:48:31;17.53;95.71
68251;DHT22;55066;51.560;4.642;2023-09-07T02:50:58;17.38;95.51
68251;DHT22;55066;51.560;4.642;2023-09-07T02:53:24;17.36;96.99
68251;DHT22;55066;51.560;4.642;2023-09-07T02:55:50;17.38;96.41
68251;DHT22;55066;51.560;4.642;2023-09-07T02:58:16;17.42;95.46
68251;DHT22;55066;51.560;4.642;2023-09-07T03:00:43;17.39;96.27
68251;DHT22;55066;51.560;4.642;2023-09-07T03:03:14;17.35;97.10
68251;DHT22;55066;51.560;4.642;2023-09-07T03:05:43;17.25;96.03
68251;DHT22;55066;51.560;4.642;2023-09-07T03:08:09;17.28;96.42
68251;DHT22;55066;51.560;4.642;2023-09-07T03:10:36;17.25;99.30
68251;DHT22;55066;51.560;4.642;2023-09-07T03:13:03;17.22;96.74
68251;DHT22;55066;51.560;4.642;2023-09-07T03:15:29;17.21;99.64
68251;DHT22;55066;51.560;4.642;2023-09-07T03:17:55;17.12;97.29
68251;DHT22;55066;51.560;4.642;2023-09-07T03:20:21;17.14;97.16
68251;DHT22;55066;51.560;4.642;2023-09-07T03:22:49;17.17;96.13
68251;DHT22;55066;51.560;4.642;2023-09-07T03:25:15;17.21;96.71
68251;DHT22;55066;51.560;4.642;2023-09-07T03:27:47;17.21;95.53
68251;DHT22;55066;51.560;4.642;2023-09-07T03:30:16;17.18;97.00
68251;DHT22;55066;51.560;4.642;2023-09-07T03:32:42;17.06;96.70
68251;DHT22;55066;51.560;4.642;2023-09-07T03:35:08;17.06;95.73
68251;DHT22;55066;51.560;4.642;2023-09-07T03:37:37;17.00;98.24
68251;DHT22;55066;51.560;4.642;2023-09-07T03:40:05;17.04;97.56
68251;DHT22;55066;51.560;4.642;2023-09-07T03:42:32;17.06;97.21
68251;DHT22;55066;51.560;4.642;2023-09-07T03:44:58;17.07;95.12
68251;DHT22;55066;51.560;4.642;2023-09-07T03:47:25;17.06;96.57
68251;DHT22;55066;51.560;4.642;2023-09-07T03:49:55;16.97;97.01
68251;DHT22;55066;51.560;4.642;2023-09-07T03:52:23;16.91;99.99
68251;DHT22;55066;51.560;4.642;2023-09-07T03:54:51;16.83;96.53
68251;DHT22;55066;51.560;4.642;2023-09-07T03:57:18;16.93;99.99
68251;DHT22;55066;51.560;4.642;2023-09-07T03:59:46;16.93;99.09
68251;DHT22;55066;51.560;4.642;2023-09-07T04:02:11;16.93;99.99
68251;DHT22;55066;51.560;4.642;2023-09-07T04:04:38;16.83;99.44
68251;DHT22;55066;51.560;4.642;2023-09-07T04:07:04;16.83;99.47
68251;DHT22;55066;51.560;4.642;2023-09-07T04:09:31;16.83;99.75
68251;DHT22;55066;51.560;4.642;2023-09-07T04:11:57;16.81;99.99
68251;DHT22;55066;51.560;4.642;2023-09-07T04:14:23;16.70;96.42
68251;DHT22;55066;51.560;4.642;2023-09-07T04:16:48;16.73;96.49
68251;DHT22;55066;51.560;4.642;2023-09-07T04:19:14;16.72;97.30
68251;DHT22;55066;51.560;4.642;2023-09-07T04:21:39;16.69;99.44
68251;DHT22;55066;51.560;4.642;2023-09-07T04:24:05;16.70;98.11
68251;DHT22;55066;51.560;4.642;2023-09-07T04:26:33;16.67;96.13
68251;DHT22;55066;51.560;4.642;2023-09-07T04:28:59;16.66;96.74
68251;DHT22;55066;51.560;4.642;2023-09-07T04:31:25;16.72;98.39
68251;DHT22;55066;51.560;4.642;2023-09-07T04:33:53;16.77;95.23
68251;DHT22;55066;51.560;4.642;2023-09-07T04:36:19;16.72;96.19
68251;DHT22;55066;51.560;4.642;2023-09-07T04:38:46;16.69;95.07
68251;DHT22;55066;51.560;4.642;2023-09-07T04:41:13;16.67;97.67
68251;DHT22;55066;51.560;4.642;2023-09-07T04:43:41;16.66;95.41
68251;DHT22;55066;51.560;4.642;2023-09-07T04:46:12;16.62;95.49
68251;DHT22;55066;51.560;4.642;2023-09-07T04:48:39;16.64;96.93
68251;DHT22;55066;51.560;4.642;2023-09-07T04:51:08;16.56;99.51
68251;DHT22;55066;51.560;4.642;2023-09-07T04:53:37;16.60;99.99
68251;DHT22;55066;51.560;4.642;2023-09-07T04:56:05;16.60;99.99
68251;DHT22;55066;51.560;4.642;2023-09-07T04:58:31;16.60;97.32
68251;DHT22;55066;51.560;4.642;2023-09-07T05:01:05;16.57;97.88
68251;DHT22;55066;51.560;4.642;2023-09-07T05:03:31;16.55;98.82
68251;DHT22;55066;51.560;4.642;2023-09-07T05:05:57;16.63;99.99
68251;DHT22;55066;51.560;4.642;2023-09-07T05:08:23;16.49;97.18
68251;DHT22;55066;51.560;4.642;2023-09-07T05:10:56;16.48;96.65
68251;DHT22;55066;51.560;4.642;2023-09-07T05:13:23;16.52;99.27
68251;DHT22;55066;51.560;4.642;2023-09-07T05:15:50;16.53;98.60
68251;DHT22;55066;51.560;4.642;2023-09-07T05:18:18;16.57;98.51
68251;DHT22;55066;51.560;4.642;2023-09-07T05:20:44;16.57;96.80
68251;DHT22;55066;51.560;4.642;2023-09-07T05:23:17;16.60;97.03
68251;DHT22;55066;51.560;4.642;2023-09-07T05:25:45;16.63;98.90
68251;DHT22;55066;51.560;4.642;2023-09-07T05:28:13;16.67;99.61
68251;DHT22;55066;51.560;4.642;2023-09-07T05:30:39;16.62;98.02
68251;DHT22;55066;51.560;4.642;2023-09-07T05:33:05;16.66;99.31
68251;DHT22;55066;51.560;4.642;2023-09-07T05:35:31;16.63;95.12
68251;DHT22;55066;51.560;4.642;2023-09-07T05:37:59;16.63;95.80
68251;DHT22;55066;51.560;4.642;2023-09-07T05:40:25;16.66;97.14
68251;DHT22;55066;51.560;4.642;2023-09-07T05:42:50;16.74;99.99
68251;DHT22;55066;51.560;4.642;2023-09-07T05:45:16;16.80;99.99
68251;DHT22;55066;51.560;4.642;2023-09-07T05:47:42;16.74;99.99
68251;DHT22;55066;51.560;4.642;2023-09-07T05:50:08;16.79;98.83
68251;DHT22;55066;51.560;4.642;2023-09-07T05:52:34;16.76;97.84
68251;DHT22;55066;51.560;4.642;2023-09-07T05:55:00;16.93;99.99
68251;DHT22;55066;51.560;4.642;2023-09-07T05:57:26;16.95;99.99
68251;DHT22;55066;51.560;4.642;2023-09-07T05:59:52;16.94;94.67
68251;DHT22;55066;51.560;4.642;2023-09-07T06:02:18;17.06;96.46
68251;DHT22;55066;51.560;4.642;2023-09-07T06:04:44;17.12;99.99
68251;DHT22;55066;51.560;4.642;2023-09-07T06:07:10;17.06;99.99
68251;DHT22;55066;51.560;4.642;2023-09-07T06:09:36;17.08;99.99
68251;DHT22;55066;51.560;4.642;2023-09-07T06:12:02;17.08;97.69
68251;DHT22;55066;51.560;4.642;2023-09-07T06:14:30;17.14;98.24
68251;DHT22;55066;51.560;4.642;2023-09-07T06:16:56;17.21;98.45
68251;DHT22;55066;51.560;4.642;2023-09-07T06:19:22;17.34;99.99
68251;DHT22;55066;51.560;4.642;2023-09-07T06:21:47;17.31;99.60
68251;DHT22;55066;51.560;4.642;2023-09-07T06:24:13;17.35;98.89
68251;DHT22;55066;51.560;4.642;2023-09-07T06:26:40;17.36;94.80
68251;DHT22;55066;51.560;4.642;2023-09-07T06:29:06;17.48;99.99
68251;DHT22;55066;51.560;4.642;2023-09-07T06:31:31;17.69;99.99
68251;DHT22;55066;51.560;4.642;2023-09-07T06:33:57;17.72;99.99
68251;DHT22;55066;51.560;4.642;2023-09-07T06:36:24;17.76;99.99
68251;DHT22;55066;51.560;4.642;2023-09-07T06:38:49;17.90;99.99
68251;DHT22;55066;51.560;4.642;2023-09-07T06:41:15;17.96;97.23
68251;DHT22;55066;51.560;4.642;2023-09-07T06:43:41;18.18;99.99
68251;DHT22;55066;51.560;4.642;2023-09-07T06:46:08;18.21;99.99
68251;DHT22;55066;51.560;4.642;2023-09-07T06:48:35;18.34;99.67
68251;DHT22;55066;51.560;4.642;2023-09-07T06:51:02;18.41;99.81
68251;DHT22;55066;51.560;4.642;2023-09-07T06:53:30;18.45;99.99
68251;DHT22;55066;51.560;4.642;2023-09-07T06:56:03;18.69;99.99
68251;DHT22;55066;51.560;4.642;2023-09-07T06:58:30;18.87;99.36
68251;DHT22;55066;51.560;4.642;2023-09-07T07:00:59;19.02;99.94
68251;DHT22;55066;51.560;4.642;2023-09-07T07:03:28;19.08;99.74
68251;DHT22;55066;51.560;4.642;2023-09-07T07:05:55;19.11;98.78
68251;DHT22;55066;51.560;4.642;2023-09-07T07:08:21;19.18;96.31
68251;DHT22;55066;51.560;4.642;2023-09-07T07:10:47;19.31;99.14
68251;DHT22;55066;51.560;4.642;2023-09-07T07:13:13;19.35;97.50
68251;DHT22;55066;51.560;4.642;2023-09-07T07:15:40;19.41;98.38
68251;DHT22;55066;51.560;4.642;2023-09-07T07:18:05;19.50;98.92
68251;DHT22;55066;51.560;4.642;2023-09-07T07:20:35;19.66;98.70
68251;DHT22;55066;51.560;4.642;2023-09-07T07:23:01;19.79;97.54
68251;DHT22;55066;51.560;4.642;2023-09-07T07:25:27;19.97;97.23
68251;DHT22;55066;51.560;4.642;2023-09-07T07:27:53;20.09;97.34
68251;DHT22;55066;51.560;4.642;2023-09-07T07:30:19;20.30;97.11
68251;DHT22;55066;51.560;4.642;2023-09-07T07:32:45;20.26;96.82
68251;DHT22;55066;51.560;4.642;2023-09-07T07:35:11;20.37;95.94
68251;DHT22;55066;51.560;4.642;2023-09-07T07:37:37;20.55;96.27
68251;DHT22;55066;51.560;4.642;2023-09-07T07:40:05;20.55;96.18
68251;DHT22;55066;51.560;4.642;2023-09-07T07:42:31;20.88;96.13
68251;DHT22;55066;51.560;4.642;2023-09-07T07:44:57;20.91;95.41
68251;DHT22;55066;51.560;4.642;2023-09-07T07:47:23;21.13;95.31
68251;DHT22;55066;51.560;4.642;2023-09-07T07:49:49;21.00;94.92
68251;DHT22;55066;51.560;4.642;2023-09-07T07:52:14;21.22;94.19
68251;DHT22;55066;51.560;4.642;2023-09-07T07:54:40;21.43;94.68
68251;DHT22;55066;51.560;4.642;2023-09-07T07:57:06;21.50;94.55
68251;DHT22;55066;51.560;4.642;2023-09-07T07:59:33;21.53;93.73
68251;DHT22;55066;51.560;4.642;2023-09-07T08:01:59;21.68;93.66
68251;DHT22;55066;51.560;4.642;2023-09-07T08:04:25;21.85;94.00
68251;DHT22;55066;51.560;4.642;2023-09-07T08:06:51;21.82;93.73
68251;DHT22;55066;51.560;4.642;2023-09-07T08:09:21;22.17;93.00
68251;DHT22;55066;51.560;4.642;2023-09-07T08:11:47;22.19;91.65
68251;DHT22;55066;51.560;4.642;2023-09-07T08:14:13;22.23;91.02
68251;DHT22;55066;51.560;4.642;2023-09-07T08:16:39;22.26;90.40
68251;DHT22;55066;51.560;4.642;2023-09-07T08:19:05;22.14;89.48
68251;DHT22;55066;51.560;4.642;2023-09-07T08:21:31;22.32;91.04
68251;DHT22;55066;51.560;4.642;2023-09-07T08:23:57;22.44;87.80
68251;DHT22;55066;51.560;4.642;2023-09-07T08:26:23;22.68;89.82
68251;DHT22;55066;51.560;4.642;2023-09-07T08:28:49;22.72;89.54
68251;DHT22;55066;51.560;4.642;2023-09-07T08:31:15;22.79;89.67
68251;DHT22;55066;51.560;4.642;2023-09-07T08:33:48;22.90;89.37
68251;DHT22;55066;51.560;4.642;2023-09-07T08:36:16;23.06;90.03
68251;DHT22;55066;51.560;4.642;2023-09-07T08:38:42;23.36;89.87
68251;DHT22;55066;51.560;4.642;2023-09-07T08:41:08;23.69;89.57
68251;DHT22;55066;51.560;4.642;2023-09-07T08:43:38;23.39;90.35
68251;DHT22;55066;51.560;4.642;2023-09-07T08:46:13;23.36;89.70
68251;DHT22;55066;51.560;4.642;2023-09-07T08:48:41;23.60;90.19
68251;DHT22;55066;51.560;4.642;2023-09-07T08:51:09;23.63;89.58
68251;DHT22;55066;51.560;4.642;2023-09-07T08:53:37;23.74;89.63
68251;DHT22;55066;51.560;4.642;2023-09-07T08:56:04;23.96;88.65
68251;DHT22;55066;51.560;4.642;2023-09-07T08:58:30;24.14;88.85
68251;DHT22;55066;51.560;4.642;2023-09-07T09:00:57;24.26;88.48
68251;DHT22;55066;51.560;4.642;2023-09-07T09:03:23;24.33;87.64
68251;DHT22;55066;51.560;4.642;2023-09-07T09:05:50;24.24;87.49
68251;DHT22;55066;51.560;4.642;2023-09-07T09:08:16;24.66;87.08
68251;DHT22;55066;51.560;4.642;2023-09-07T09:10:46;24.81;86.15
68251;DHT22;55066;51.560;4.642;2023-09-07T09:13:11;25.18;86.75
68251;DHT22;55066;51.560;4.642;2023-09-07T09:15:38;25.24;85.46
68251;DHT22;55066;51.560;4.642;2023-09-07T09:18:13;25.12;85.53
68251;DHT22;55066;51.560;4.642;2023-09-07T09:20:39;24.98;86.01
68251;DHT22;55066;51.560;4.642;2023-09-07T09:23:05;25.28;84.89
68251;DHT22;55066;51.560;4.642;2023-09-07T09:25:32;25.42;84.50
68251;DHT22;55066;51.560;4.642;2023-09-07T09:27:58;25.62;83.39
68251;DHT22;55066;51.560;4.642;2023-09-07T09:30:25;25.69;83.22
68251;DHT22;55066;51.560;4.642;2023-09-07T09:32:50;25.73;83.80
68251;DHT22;55066;51.560;4.642;2023-09-07T09:35:17;25.94;81.89
68251;DHT22;55066;51.560;4.642;2023-09-07T09:37:47;26.04;83.67
68251;DHT22;55066;51.560;4.642;2023-09-07T09:40:14;25.89;82.70
68251;DHT22;55066;51.560;4.642;2023-09-07T09:42:42;26.07;81.64
68251;DHT22;55066;51.560;4.642;2023-09-07T09:45:09;26.18;80.26
68251;DHT22;55066;51.560;4.642;2023-09-07T09:47:38;26.35;80.37
68251;DHT22;55066;51.560;4.642;2023-09-07T09:50:06;26.66;79.39
68251;DHT22;55066;51.560;4.642;2023-09-07T09:52:36;26.53;79.45
68251;DHT22;55066;51.560;4.642;2023-09-07T09:55:06;26.79;81.79
68251;DHT22;55066;51.560;4.642;2023-09-07T09:57:36;27.04;79.93
68251;DHT22;55066;51.560;4.642;2023-09-07T10:00:07;27.17;80.03
68251;DHT22;55066;51.560;4.642;2023-09-07T10:03:04;27.17;79.77
68251;DHT22;55066;51.560;4.642;2023-09-07T10:05:31;27.37;80.35
68251;DHT22;55066;51.560;4.642;2023-09-07T10:08:03;27.55;79.24
68251;DHT22;55066;51.560;4.642;2023-09-07T10:10:34;27.42;79.66
68251;DHT22;55066;51.560;4.642;2023-09-07T10:13:02;27.37;79.83
68251;DHT22;55066;51.560;4.642;2023-09-07T10:15:29;27.54;78.80
68251;DHT22;55066;51.560;4.642;2023-09-07T10:18:13;27.52;78.67
68251;DHT22;55066;51.560;4.642;2023-09-07T10:20:55;27.72;78.52
68251;DHT22;55066;51.560;4.642;2023-09-07T10:23:22;27.66;78.33
68251;DHT22;55066;51.560;4.642;2023-09-07T10:25:53;27.45;79.08
68251;DHT22;55066;51.560;4.642;2023-09-07T10:28:23;27.48;80.09
68251;DHT22;55066;51.560;4.642;2023-09-07T10:31:16;27.96;79.98
68251;DHT22;55066;51.560;4.642;2023-09-07T10:33:43;27.99;82.43
68251;DHT22;55066;51.560;4.642;2023-09-07T10:36:20;28.37;81.18
68251;DHT22;55066;51.560;4.642;2023-09-07T10:38:46;28.23;77.31
68251;DHT22;55066;51.560;4.642;2023-09-07T10:41:12;28.58;78.20
68251;DHT22;55066;51.560;4.642;2023-09-07T10:43:47;28.37;78.21
68251;DHT22;55066;51.560;4.642;2023-09-07T10:46:13;28.34;79.35
68251;DHT22;55066;51.560;4.642;2023-09-07T10:48:39;28.78;76.88
68251;DHT22;55066;51.560;4.642;2023-09-07T10:51:06;28.55;75.23
68251;DHT22;55066;51.560;4.642;2023-09-07T10:53:32;28.55;76.90
68251;DHT22;55066;51.560;4.642;2023-09-07T10:56:02;28.53;76.31
68251;DHT22;55066;51.560;4.642;2023-09-07T10:58:33;28.83;74.96
68251;DHT22;55066;51.560;4.642;2023-09-07T11:00:59;28.96;75.89
68251;DHT22;55066;51.560;4.642;2023-09-07T11:03:26;28.82;73.50
68251;DHT22;55066;51.560;4.642;2023-09-07T11:06:08;28.62;75.48
68251;DHT22;55066;51.560;4.642;2023-09-07T11:08:34;28.79;75.80
68251;DHT22;55066;51.560;4.642;2023-09-07T11:11:04;28.72;75.93
68251;DHT22;55066;51.560;4.642;2023-09-07T11:13:30;29.30;77.03
68251;DHT22;55066;51.560;4.642;2023-09-07T11:15:58;29.08;74.69
68251;DHT22;55066;51.560;4.642;2023-09-07T11:18:25;29.53;78.26
68251;DHT22;55066;51.560;4.642;2023-09-07T11:20:52;29.36;74.98
68251;DHT22;55066;51.560;4.642;2023-09-07T11:23:19;29.58;76.00
68251;DHT22;55066;51.560;4.642;2023-09-07T11:25:47;29.88;73.31
68251;DHT22;55066;51.560;4.642;2023-09-07T11:28:16;29.77;76.87
68251;DHT22;55066;51.560;4.642;2023-09-07T11:30:53;29.68;72.20
68251;DHT22;55066;51.560;4.642;2023-09-07T11:33:20;29.44;74.36
68251;DHT22;55066;51.560;4.642;2023-09-07T11:35:46;29.93;75.75
68251;DHT22;55066;51.560;4.642;2023-09-07T11:38:13;29.75;73.75
68251;DHT22;55066;51.560;4.642;2023-09-07T11:40:39;29.81;72.86
68251;DHT22;55066;51.560;4.642;2023-09-07T11:43:16;29.57;73.81
68251;DHT22;55066;51.560;4.642;2023-09-07T11:45:43;29.95;72.86
68251;DHT22;55066;51.560;4.642;2023-09-07T11:48:09;30.11;76.82
68251;DHT22;55066;51.560;4.642;2023-09-07T11:50:36;30.22;74.66
68251;DHT22;55066;51.560;4.642;2023-09-07T11:53:02;29.82;72.97
68251;DHT22;55066;51.560;4.642;2023-09-07T11:55:28;30.01;72.27
68251;DHT22;55066;51.560;4.642;2023-09-07T11:57:54;30.01;73.65
68251;DHT22;55066;51.560;4.642;2023-09-07T12:00:20;30.18;73.46
68251;DHT22;55066;51.560;4.642;2023-09-07T12:02:48;30.47;73.22
68251;DHT22;55066;51.560;4.642;2023-09-07T12:05:14;30.30;70.86
68251;DHT22;55066;51.560;4.642;2023-09-07T12:07:42;30.43;80.28
68251;DHT22;55066;51.560;4.642;2023-09-07T12:10:11;30.61;69.38
68251;DHT22;55066;51.560;4.642;2023-09-07T12:12:41;30.68;75.22
68251;DHT22;55066;51.560;4.642;2023-09-07T12:15:07;30.91;76.43
68251;DHT22;55066;51.560;4.642;2023-09-07T12:17:34;30.95;70.31
68251;DHT22;55066;51.560;4.642;2023-09-07T12:20:02;31.26;74.66
68251;DHT22;55066;51.560;4.642;2023-09-07T12:22:28;31.19;72.65
68251;DHT22;55066;51.560;4.642;2023-09-07T12:24:55;31.45;75.55
68251;DHT22;55066;51.560;4.642;2023-09-07T12:27:21;31.56;75.14
68251;DHT22;55066;51.560;4.642;2023-09-07T12:29:47;31.56;67.98
68251;DHT22;55066;51.560;4.642;2023-09-07T12:32:14;30.98;68.56
68251;DHT22;55066;51.560;4.642;2023-09-07T12:34:40;30.85;69.13
68251;DHT22;55066;51.560;4.642;2023-09-07T12:37:06;31.12;68.20
68251;DHT22;55066;51.560;4.642;2023-09-07T12:39:32;31.35;70.12
68251;DHT22;55066;51.560;4.642;2023-09-07T12:41:58;31.59;73.43
68251;DHT22;55066;51.560;4.642;2023-09-07T12:44:24;31.58;77.51
68251;DHT22;55066;51.560;4.642;2023-09-07T12:46:50;31.84;71.38
68251;DHT22;55066;51.560;4.642;2023-09-07T12:49:15;31.45;69.86
68251;DHT22;55066;51.560;4.642;2023-09-07T12:51:42;32.20;71.34
68251;DHT22;55066;51.560;4.642;2023-09-07T12:54:08;32.10;71.79
68251;DHT22;55066;51.560;4.642;2023-09-07T12:56:33;32.46;72.62
68251;DHT22;55066;51.560;4.642;2023-09-07T12:58:59;32.29;67.14
68251;DHT22;55066;51.560;4.642;2023-09-07T13:01:28;32.51;68.77
68251;DHT22;55066;51.560;4.642;2023-09-07T13:03:54;32.13;70.94
68251;DHT22;55066;51.560;4.642;2023-09-07T13:06:19;31.94;67.64
68251;DHT22;55066;51.560;4.642;2023-09-07T13:08:45;31.97;75.93
68251;DHT22;55066;51.560;4.642;2023-09-07T13:11:11;31.86;66.51
68251;DHT22;55066;51.560;4.642;2023-09-07T13:13:37;32.08;71.20
68251;DHT22;55066;51.560;4.642;2023-09-07T13:16:04;32.34;74.13
68251;DHT22;55066;51.560;4.642;2023-09-07T13:18:30;32.53;71.74
68251;DHT22;55066;51.560;4.642;2023-09-07T13:20:57;32.31;68.97
68251;DHT22;55066;51.560;4.642;2023-09-07T13:23:26;31.98;71.23
68251;DHT22;55066;51.560;4.642;2023-09-07T13:25:51;31.86;71.66
68251;DHT22;55066;51.560;4.642;2023-09-07T13:28:17;32.27;70.30
68251;DHT22;55066;51.560;4.642;2023-09-07T13:30:43;32.31;74.41
68251;DHT22;55066;51.560;4.642;2023-09-07T13:33:09;32.38;68.68
68251;DHT22;55066;51.560;4.642;2023-09-07T13:35:35;32.08;68.05
68251;DHT22;55066;51.560;4.642;2023-09-07T13:38:01;31.84;68.07
68251;DHT22;55066;51.560;4.642;2023-09-07T13:40:27;32.36;67.66
68251;DHT22;55066;51.560;4.642;2023-09-07T13:42:55;32.13;73.79
68251;DHT22;55066;51.560;4.642;2023-09-07T13:45:21;32.15;72.68
68251;DHT22;55066;51.560;4.642;2023-09-07T13:47:47;31.95;66.98
68251;DHT22;55066;51.560;4.642;2023-09-07T13:50:13;32.10;67.64
68251;DHT22;55066;51.560;4.642;2023-09-07T13:52:39;32.42;70.08
68251;DHT22;55066;51.560;4.642;2023-09-07T13:55:06;32.59;74.50
68251;DHT22;55066;51.560;4.642;2023-09-07T13:57:32;32.87;70.36
68251;DHT22;55066;51.560;4.642;2023-09-07T13:59:58;33.04;66.18
68251;DHT22;55066;51.560;4.642;2023-09-07T14:02:24;33.27;69.86
68251;DHT22;55066;51.560;4.642;2023-09-07T14:04:51;34.62;75.23
68251;DHT22;55066;51.560;4.642;2023-09-07T14:07:17;35.49;69.99
68251;DHT22;55066;51.560;4.642;2023-09-07T14:09:43;35.57;61.52
68251;DHT22;55066;51.560;4.642;2023-09-07T14:12:10;34.60;63.58
68251;DHT22;55066;51.560;4.642;2023-09-07T14:14:36;35.35;60.19
68251;DHT22;55066;51.560;4.642;2023-09-07T14:17:02;35.60;59.39
68251;DHT22;55066;51.560;4.642;2023-09-07T14:19:28;35.22;61.14
68251;DHT22;55066;51.560;4.642;2023-09-07T14:21:57;34.75;60.49
68251;DHT22;55066;51.560;4.642;2023-09-07T14:24:23;34.37;61.16
68251;DHT22;55066;51.560;4.642;2023-09-07T14:26:49;34.82;62.02
68251;DHT22;55066;51.560;4.642;2023-09-07T14:29:15;35.06;63.80
68251;DHT22;55066;51.560;4.642;2023-09-07T14:31:41;34.51;62.66
68251;DHT22;55066;51.560;4.642;2023-09-07T14:34:08;34.62;65.35
68251;DHT22;55066;51.560;4.642;2023-09-07T14:36:35;35.27;67.87
68251;DHT22;55066;51.560;4.642;2023-09-07T14:39:01;35.02;63.13
68251;DHT22;55066;51.560;4.642;2023-09-07T14:41:28;35.02;64.57
68251;DHT22;55066;51.560;4.642;2023-09-07T14:43:55;34.28;63.45
68251;DHT22;55066;51.560;4.642;2023-09-07T14:46:22;33.83;62.68
68251;DHT22;55066;51.560;4.642;2023-09-07T14:48:50;34.27;66.90
68251;DHT22;55066;51.560;4.642;2023-09-07T14:51:16;33.63;69.02
68251;DHT22;55066;51.560;4.642;2023-09-07T14:53:41;33.27;64.96
68251;DHT22;55066;51.560;4.642;2023-09-07T14:56:07;33.14;65.45
68251;DHT22;55066;51.560;4.642;2023-09-07T14:58:33;33.37;67.57
68251;DHT22;55066;51.560;4.642;2023-09-07T15:00:59;33.25;66.30
68251;DHT22;55066;51.560;4.642;2023-09-07T15:03:24;33.16;65.03
68251;DHT22;55066;51.560;4.642;2023-09-07T15:05:50;32.95;65.86
68251;DHT22;55066;51.560;4.642;2023-09-07T15:08:17;33.30;64.54
68251;DHT22;55066;51.560;4.642;2023-09-07T15:10:43;33.08;65.82
68251;DHT22;55066;51.560;4.642;2023-09-07T15:13:09;33.52;66.39
68251;DHT22;55066;51.560;4.642;2023-09-07T15:15:35;33.21;66.80
68251;DHT22;55066;51.560;4.642;2023-09-07T15:18:08;32.93;70.06
68251;DHT22;55066;51.560;4.642;2023-09-07T15:20:34;32.69;65.72
68251;DHT22;55066;51.560;4.642;2023-09-07T15:23:01;32.56;68.90
68251;DHT22;55066;51.560;4.642;2023-09-07T15:25:27;32.89;72.73
68251;DHT22;55066;51.560;4.642;2023-09-07T15:27:53;32.59;69.93
68251;DHT22;55066;51.560;4.642;2023-09-07T15:30:20;33.27;73.17